sensor_id;sensor_type;location;lat;lon;timestamp;P1;durP1;ratioP1;P2;durP2;ratioP2
56629;SDS011;42502;40.732;-74.254;2023-02-20T00:01:20;23.15;;;1.90;;
56629;SDS011;42502;40.732;-74.254;2023-02-20T00:03:21;21.83;;;1.98;;
56629;SDS011;42502;40.732;-74.254;2023-02-20T00:05:25;21.38;;;1.40;;
56629;SDS011;42502;40.732;-74.254;2023-02-20T00:07:25;31.33;;;2.88;;
56629;SDS011;42502;40.732;-74.254;2023-02-20T00:09:26;21.33;;;1.73;;
56629;SDS011;42502;40.732;-74.254;2023-02-20T00:11:30;31.20;;;1.90;;
56629;SDS011;42502;40.732;-74.254;2023-02-20T00:13:31;14.75;;;2.08;;
56629;SDS011;42502;40.732;-74.254;2023-02-20T00:15:31;13.68;;;1.48;;
56629;SDS011;42502;40.732;-74.254;2023-02-20T00:17:32;25.60;;;1.73;;
56629;SDS011;42502;40.732;-74.254;2023-02-20T00:19:34;23.70;;;1.55;;
56629;SDS011;42502;40.732;-74.254;2023-02-20T00:21:43;18.05;;;2.05;;
56629;SDS011;42502;40.732;-74.254;2023-02-20T00:23:48;20.00;;;1.90;;
56629;SDS011;42502;40.732;-74.254;2023-02-20T00:25:49;21.88;;;2.20;;
56629;SDS011;42502;40.732;-74.254;2023-02-20T00:27:52;18.75;;;1.77;;
56629;SDS011;42502;40.732;-74.254;2023-02-20T00:29:53;27.67;;;2.03;;
56629;SDS011;42502;40.732;-74.254;2023-02-20T00:31:54;24.58;;;1.83;;
56629;SDS011;42502;40.732;-74.254;2023-02-20T00:33:57;32.40;;;1.95;;
56629;SDS011;42502;40.732;-74.254;2023-02-20T00:35:58;25.35;;;2.05;;
56629;SDS011;42502;40.732;-74.254;2023-02-20T00:38:07;21.63;;;1.92;;
56629;SDS011;42502;40.732;-74.254;2023-02-20T00:40:09;29.90;;;1.85;;
56629;SDS011;42502;40.732;-74.254;2023-02-20T00:42:13;28.08;;;2.03;;
56629;SDS011;42502;40.732;-74.254;2023-02-20T00:44:14;28.83;;;2.10;;
56629;SDS011;42502;40.732;-74.254;2023-02-20T00:46:17;28.13;;;2.47;;
56629;SDS011;42502;40.732;-74.254;2023-02-20T00:48:18;23.05;;;2.28;;
56629;SDS011;42502;40.732;-74.254;2023-02-20T00:50:19;28.00;;;2.17;;
56629;SDS011;42502;40.732;-74.254;2023-02-20T00:52:20;20.42;;;1.95;;
56629;SDS011;42502;40.732;-74.254;2023-02-20T00:54:21;24.17;;;2.08;;
56629;SDS011;42502;40.732;-74.254;2023-02-20T00:56:22;23.73;;;2.00;;
56629;SDS011;42502;40.732;-74.254;2023-02-20T00:58:22;24.27;;;2.00;;
56629;SDS011;42502;40.732;-74.254;2023-02-20T01:00:24;29.92;;;1.55;;
56629;SDS011;42502;40.732;-74.254;2023-02-20T01:02:27;27.63;;;2.33;;
56629;SDS011;42502;40.732;-74.254;2023-02-20T01:04:28;24.73;;;2.17;;
56629;SDS011;42502;40.732;-74.254;2023-02-20T01:06:29;31.20;;;2.15;;
56629;SDS011;42502;40.732;-74.254;2023-02-20T01:08:30;27.33;;;2.28;;
56629;SDS011;42502;40.732;-74.254;2023-02-20T01:10:31;29.77;;;2.67;;
56629;SDS011;42502;40.732;-74.254;2023-02-20T01:12:33;24.63;;;1.75;;
56629;SDS011;42502;40.732;-74.254;2023-02-20T01:14:34;28.75;;;1.60;;
56629;SDS011;42502;40.732;-74.254;2023-02-20T01:16:37;28.45;;;1.80;;
56629;SDS011;42502;40.732;-74.254;2023-02-20T01:18:44;22.13;;;1.60;;
56629;SDS011;42502;40.732;-74.254;2023-02-20T01:20:47;25.42;;;1.83;;
56629;SDS011;42502;40.732;-74.254;2023-02-20T01:22:48;21.63;;;1.90;;
56629;SDS011;42502;40.732;-74.254;2023-02-20T01:24:49;23.63;;;1.98;;
56629;SDS011;42502;40.732;-74.254;2023-02-20T01:26:50;17.20;;;1.67;;
56629;SDS011;42502;40.732;-74.254;2023-02-20T01:28:51;18.05;;;2.22;;
56629;SDS011;42502;40.732;-74.254;2023-02-20T01:30:52;27.73;;;2.22;;
56629;SDS011;42502;40.732;-74.254;2023-02-20T01:32:55;18.40;;;1.70;;
56629;SDS011;42502;40.732;-74.254;2023-02-20T01:34:56;23.30;;;1.75;;
56629;SDS011;42502;40.732;-74.254;2023-02-20T01:36:57;26.73;;;2.20;;
56629;SDS011;42502;40.732;-74.254;2023-02-20T01:38:59;20.15;;;1.90;;
56629;SDS011;42502;40.732;-74.254;2023-02-20T01:41:00;18.55;;;1.40;;
56629;SDS011;42502;40.732;-74.254;2023-02-20T01:43:01;20.40;;;1.88;;
56629;SDS011;42502;40.732;-74.254;2023-02-20T01:45:16;18.88;;;1.75;;
56629;SDS011;42502;40.732;-74.254;2023-02-20T01:47:20;15.27;;;1.38;;
56629;SDS011;42502;40.732;-74.254;2023-02-20T01:51:29;26.52;;;1.83;;
56629;SDS011;42502;40.732;-74.254;2023-02-20T01:53:35;14.07;;;1.50;;
56629;SDS011;42502;40.732;-74.254;2023-02-20T01:55:41;18.92;;;1.52;;
56629;SDS011;42502;40.732;-74.254;2023-02-20T01:57:52;17.23;;;1.70;;
56629;SDS011;42502;40.732;-74.254;2023-02-20T01:59:59;15.00;;;1.88;;
56629;SDS011;42502;40.732;-74.254;2023-02-20T02:02:06;20.45;;;1.20;;
56629;SDS011;42502;40.732;-74.254;2023-02-20T02:04:08;26.27;;;2.22;;
56629;SDS011;42502;40.732;-74.254;2023-02-20T02:06:12;14.93;;;1.15;;
56629;SDS011;42502;40.732;-74.254;2023-02-20T02:08:17;14.00;;;1.27;;
56629;SDS011;42502;40.732;-74.254;2023-02-20T02:10:23;15.07;;;1.42;;
56629;SDS011;42502;40.732;-74.254;2023-02-20T02:12:29;8.35;;;1.42;;
56629;SDS011;42502;40.732;-74.254;2023-02-20T02:14:30;12.10;;;1.10;;
56629;SDS011;42502;40.732;-74.254;2023-02-20T02:19:53;12.82;;;1.33;;
56629;SDS011;42502;40.732;-74.254;2023-02-20T02:40:19;12.90;;;0.90;;
56629;SDS011;42502;40.732;-74.254;2023-02-20T02:42:33;14.73;;;1.15;;
56629;SDS011;42502;40.732;-74.254;2023-02-20T02:44:56;8.65;;;1.25;;
56629;SDS011;42502;40.732;-74.254;2023-02-20T02:47:10;16.30;;;1.05;;
56629;SDS011;42502;40.732;-74.254;2023-02-20T02:49:25;9.95;;;1.20;;
56629;SDS011;42502;40.732;-74.254;2023-02-20T02:51:50;8.43;;;1.33;;
56629;SDS011;42502;40.732;-74.254;2023-02-20T02:54:13;11.07;;;1.08;;
56629;SDS011;42502;40.732;-74.254;2023-02-20T02:56:16;10.82;;;1.13;;
56629;SDS011;42502;40.732;-74.254;2023-02-20T02:58:22;11.98;;;0.90;;
56629;SDS011;42502;40.732;-74.254;2023-02-20T03:00:25;8.15;;;0.90;;
56629;SDS011;42502;40.732;-74.254;2023-02-20T03:02:32;11.48;;;1.00;;
56629;SDS011;42502;40.732;-74.254;2023-02-20T03:04:37;8.10;;;1.50;;
56629;SDS011;42502;40.732;-74.254;2023-02-20T03:06:41;14.63;;;1.05;;
56629;SDS011;42502;40.732;-74.254;2023-02-20T03:08:47;10.07;;;1.05;;
56629;SDS011;42502;40.732;-74.254;2023-02-20T03:10:58;13.25;;;1.17;;
56629;SDS011;42502;40.732;-74.254;2023-02-20T03:13:07;8.50;;;1.00;;
56629;SDS011;42502;40.732;-74.254;2023-02-20T03:15:13;5.57;;;0.77;;
56629;SDS011;42502;40.732;-74.254;2023-02-20T03:17:36;13.52;;;1.13;;
56629;SDS011;42502;40.732;-74.254;2023-02-20T03:19:43;9.65;;;1.00;;
56629;SDS011;42502;40.732;-74.254;2023-02-20T03:21:52;6.35;;;1.00;;
56629;SDS011;42502;40.732;-74.254;2023-02-20T03:23:57;10.77;;;1.00;;
56629;SDS011;42502;40.732;-74.254;2023-02-20T03:26:02;9.60;;;1.55;;
56629;SDS011;42502;40.732;-74.254;2023-02-20T03:28:08;7.13;;;1.00;;
56629;SDS011;42502;40.732;-74.254;2023-02-20T03:32:41;12.43;;;1.30;;
56629;SDS011;42502;40.732;-74.254;2023-02-20T03:35:05;11.23;;;0.90;;
56629;SDS011;42502;40.732;-74.254;2023-02-20T03:37:27;7.75;;;1.10;;
56629;SDS011;42502;40.732;-74.254;2023-02-20T03:39:50;13.90;;;1.08;;
56629;SDS011;42502;40.732;-74.254;2023-02-20T03:42:13;15.65;;;1.40;;
56629;SDS011;42502;40.732;-74.254;2023-02-20T03:44:34;6.50;;;1.58;;
56629;SDS011;42502;40.732;-74.254;2023-02-20T03:46:37;11.45;;;1.35;;
56629;SDS011;42502;40.732;-74.254;2023-02-20T03:50:50;7.47;;;1.08;;
56629;SDS011;42502;40.732;-74.254;2023-02-20T03:53:09;8.40;;;1.58;;
56629;SDS011;42502;40.732;-74.254;2023-02-20T03:55:10;19.40;;;2.22;;
56629;SDS011;42502;40.732;-74.254;2023-02-20T03:57:12;10.98;;;1.90;;
56629;SDS011;42502;40.732;-74.254;2023-02-20T04:01:30;10.75;;;2.13;;
56629;SDS011;42502;40.732;-74.254;2023-02-20T04:03:38;12.02;;;2.53;;
56629;SDS011;42502;40.732;-74.254;2023-02-20T04:05:44;12.40;;;2.50;;
56629;SDS011;42502;40.732;-74.254;2023-02-20T04:09:55;15.07;;;2.33;;
56629;SDS011;42502;40.732;-74.254;2023-02-20T04:12:11;12.07;;;2.85;;
56629;SDS011;42502;40.732;-74.254;2023-02-20T04:14:25;10.75;;;2.85;;
56629;SDS011;42502;40.732;-74.254;2023-02-20T04:16:29;18.25;;;3.50;;
56629;SDS011;42502;40.732;-74.254;2023-02-20T04:18:35;15.48;;;3.67;;
56629;SDS011;42502;40.732;-74.254;2023-02-20T04:20:36;23.08;;;3.55;;
56629;SDS011;42502;40.732;-74.254;2023-02-20T04:22:38;21.13;;;4.20;;
56629;SDS011;42502;40.732;-74.254;2023-02-20T04:24:54;14.18;;;3.60;;
56629;SDS011;42502;40.732;-74.254;2023-02-20T04:27:00;19.25;;;3.72;;
56629;SDS011;42502;40.732;-74.254;2023-02-20T04:29:03;11.73;;;3.15;;
56629;SDS011;42502;40.732;-74.254;2023-02-20T04:31:10;17.85;;;3.30;;
56629;SDS011;42502;40.732;-74.254;2023-02-20T04:33:13;14.55;;;4.00;;
56629;SDS011;42502;40.732;-74.254;2023-02-20T04:35:18;21.55;;;3.85;;
56629;SDS011;42502;40.732;-74.254;2023-02-20T04:37:20;12.93;;;3.83;;
56629;SDS011;42502;40.732;-74.254;2023-02-20T04:39:21;13.65;;;3.60;;
56629;SDS011;42502;40.732;-74.254;2023-02-20T04:41:24;12.43;;;3.72;;
56629;SDS011;42502;40.732;-74.254;2023-02-20T04:43:25;12.00;;;3.90;;
56629;SDS011;42502;40.732;-74.254;2023-02-20T04:45:26;15.15;;;3.63;;
56629;SDS011;42502;40.732;-74.254;2023-02-20T04:47:27;10.88;;;3.05;;
56629;SDS011;42502;40.732;-74.254;2023-02-20T04:49:28;20.00;;;4.72;;
56629;SDS011;42502;40.732;-74.254;2023-02-20T04:51:31;13.32;;;3.42;;
56629;SDS011;42502;40.732;-74.254;2023-02-20T04:53:32;16.73;;;3.83;;
56629;SDS011;42502;40.732;-74.254;2023-02-20T04:55:33;11.40;;;3.40;;
56629;SDS011;42502;40.732;-74.254;2023-02-20T04:57:34;12.73;;;3.42;;
56629;SDS011;42502;40.732;-74.254;2023-02-20T04:59:35;17.48;;;4.00;;
56629;SDS011;42502;40.732;-74.254;2023-02-20T05:01:36;15.57;;;4.40;;
56629;SDS011;42502;40.732;-74.254;2023-02-20T05:03:36;11.82;;;3.00;;
56629;SDS011;42502;40.732;-74.254;2023-02-20T05:05:40;11.93;;;2.90;;
56629;SDS011;42502;40.732;-74.254;2023-02-20T05:07:41;10.80;;;3.50;;
56629;SDS011;42502;40.732;-74.254;2023-02-20T05:09:44;13.00;;;3.60;;
56629;SDS011;42502;40.732;-74.254;2023-02-20T05:11:45;11.15;;;2.65;;
56629;SDS011;42502;40.732;-74.254;2023-02-20T05:13:49;12.35;;;2.83;;
56629;SDS011;42502;40.732;-74.254;2023-02-20T05:15:50;15.75;;;3.78;;
56629;SDS011;42502;40.732;-74.254;2023-02-20T05:17:51;9.48;;;2.90;;
56629;SDS011;42502;40.732;-74.254;2023-02-20T05:19:54;15.23;;;2.80;;
56629;SDS011;42502;40.732;-74.254;2023-02-20T05:21:55;15.00;;;3.53;;
56629;SDS011;42502;40.732;-74.254;2023-02-20T05:24:21;9.77;;;2.85;;
56629;SDS011;42502;40.732;-74.254;2023-02-20T05:26:23;8.85;;;2.35;;
56629;SDS011;42502;40.732;-74.254;2023-02-20T05:28:24;8.55;;;2.80;;
56629;SDS011;42502;40.732;-74.254;2023-02-20T05:30:25;12.00;;;2.92;;
56629;SDS011;42502;40.732;-74.254;2023-02-20T05:32:26;7.60;;;2.67;;
56629;SDS011;42502;40.732;-74.254;2023-02-20T05:34:28;13.68;;;2.63;;
56629;SDS011;42502;40.732;-74.254;2023-02-20T05:36:29;7.65;;;2.15;;
56629;SDS011;42502;40.732;-74.254;2023-02-20T05:38:35;9.93;;;2.05;;
56629;SDS011;42502;40.732;-74.254;2023-02-20T05:40:40;9.43;;;2.40;;
56629;SDS011;42502;40.732;-74.254;2023-02-20T05:42:41;8.30;;;2.22;;
56629;SDS011;42502;40.732;-74.254;2023-02-20T05:44:42;8.45;;;2.28;;
56629;SDS011;42502;40.732;-74.254;2023-02-20T05:46:43;7.40;;;1.80;;
56629;SDS011;42502;40.732;-74.254;2023-02-20T05:48:47;5.28;;;1.67;;
56629;SDS011;42502;40.732;-74.254;2023-02-20T05:50:49;9.27;;;1.85;;
56629;SDS011;42502;40.732;-74.254;2023-02-20T05:52:50;7.70;;;1.92;;
56629;SDS011;42502;40.732;-74.254;2023-02-20T05:54:51;7.18;;;1.92;;
56629;SDS011;42502;40.732;-74.254;2023-02-20T05:56:52;6.20;;;1.60;;
56629;SDS011;42502;40.732;-74.254;2023-02-20T05:58:53;8.38;;;2.13;;
56629;SDS011;42502;40.732;-74.254;2023-02-20T06:00:54;4.93;;;1.48;;
56629;SDS011;42502;40.732;-74.254;2023-02-20T06:02:54;7.53;;;1.70;;
56629;SDS011;42502;40.732;-74.254;2023-02-20T06:04:55;6.15;;;1.58;;
56629;SDS011;42502;40.732;-74.254;2023-02-20T06:06:56;7.15;;;1.50;;
56629;SDS011;42502;40.732;-74.254;2023-02-20T06:08:57;4.60;;;1.30;;
56629;SDS011;42502;40.732;-74.254;2023-02-20T06:10:58;7.38;;;1.48;;
56629;SDS011;42502;40.732;-74.254;2023-02-20T06:13:05;5.53;;;1.42;;
56629;SDS011;42502;40.732;-74.254;2023-02-20T06:15:05;4.20;;;1.30;;
56629;SDS011;42502;40.732;-74.254;2023-02-20T06:17:07;3.92;;;1.25;;
56629;SDS011;42502;40.732;-74.254;2023-02-20T06:19:08;4.05;;;1.33;;
56629;SDS011;42502;40.732;-74.254;2023-02-20T06:21:09;7.07;;;1.90;;
56629;SDS011;42502;40.732;-74.254;2023-02-20T06:23:10;4.18;;;1.40;;
56629;SDS011;42502;40.732;-74.254;2023-02-20T06:25:11;3.90;;;1.30;;
56629;SDS011;42502;40.732;-74.254;2023-02-20T06:27:12;3.63;;;1.20;;
56629;SDS011;42502;40.732;-74.254;2023-02-20T06:29:14;6.93;;;1.20;;
56629;SDS011;42502;40.732;-74.254;2023-02-20T06:31:25;3.65;;;1.42;;
56629;SDS011;42502;40.732;-74.254;2023-02-20T06:33:27;5.90;;;1.20;;
56629;SDS011;42502;40.732;-74.254;2023-02-20T06:35:28;2.92;;;1.30;;
56629;SDS011;42502;40.732;-74.254;2023-02-20T06:37:29;6.07;;;1.52;;
56629;SDS011;42502;40.732;-74.254;2023-02-20T06:39:31;3.63;;;1.20;;
56629;SDS011;42502;40.732;-74.254;2023-02-20T06:41:32;5.30;;;1.10;;
56629;SDS011;42502;40.732;-74.254;2023-02-20T06:43:33;4.55;;;1.38;;
56629;SDS011;42502;40.732;-74.254;2023-02-20T06:45:34;4.50;;;1.25;;
56629;SDS011;42502;40.732;-74.254;2023-02-20T06:47:35;4.07;;;1.20;;
56629;SDS011;42502;40.732;-74.254;2023-02-20T06:49:37;1.83;;;0.90;;
56629;SDS011;42502;40.732;-74.254;2023-02-20T06:51:38;2.08;;;0.85;;
56629;SDS011;42502;40.732;-74.254;2023-02-20T06:53:39;2.15;;;0.90;;
56629;SDS011;42502;40.732;-74.254;2023-02-20T06:55:41;3.28;;;0.90;;
56629;SDS011;42502;40.732;-74.254;2023-02-20T06:57:42;2.55;;;0.98;;
56629;SDS011;42502;40.732;-74.254;2023-02-20T06:59:46;2.75;;;1.08;;
56629;SDS011;42502;40.732;-74.254;2023-02-20T07:01:49;3.95;;;0.95;;
56629;SDS011;42502;40.732;-74.254;2023-02-20T07:03:50;2.33;;;0.88;;
56629;SDS011;42502;40.732;-74.254;2023-02-20T07:05:52;1.67;;;0.85;;
56629;SDS011;42502;40.732;-74.254;2023-02-20T07:07:53;3.47;;;0.93;;
56629;SDS011;42502;40.732;-74.254;2023-02-20T07:09:57;1.55;;;0.80;;
56629;SDS011;42502;40.732;-74.254;2023-02-20T07:12:00;1.85;;;1.00;;
56629;SDS011;42502;40.732;-74.254;2023-02-20T07:14:01;2.25;;;0.85;;
56629;SDS011;42502;40.732;-74.254;2023-02-20T07:16:02;2.65;;;1.00;;
56629;SDS011;42502;40.732;-74.254;2023-02-20T07:18:03;1.73;;;0.82;;
56629;SDS011;42502;40.732;-74.254;2023-02-20T07:20:04;1.02;;;0.80;;
56629;SDS011;42502;40.732;-74.254;2023-02-20T07:22:05;3.90;;;0.80;;
56629;SDS011;42502;40.732;-74.254;2023-02-20T07:24:06;1.83;;;0.88;;
56629;SDS011;42502;40.732;-74.254;2023-02-20T07:26:15;4.32;;;0.85;;
56629;SDS011;42502;40.732;-74.254;2023-02-20T07:28:18;1.73;;;0.70;;
56629;SDS011;42502;40.732;-74.254;2023-02-20T07:30:19;1.70;;;0.75;;
56629;SDS011;42502;40.732;-74.254;2023-02-20T07:32:24;2.28;;;0.80;;
56629;SDS011;42502;40.732;-74.254;2023-02-20T07:34:25;1.63;;;0.80;;
56629;SDS011;42502;40.732;-74.254;2023-02-20T07:36:25;2.22;;;0.75;;
56629;SDS011;42502;40.732;-74.254;2023-02-20T07:38:26;3.33;;;0.75;;
56629;SDS011;42502;40.732;-74.254;2023-02-20T07:40:27;2.65;;;0.80;;
56629;SDS011;42502;40.732;-74.254;2023-02-20T07:42:28;3.03;;;0.70;;
56629;SDS011;42502;40.732;-74.254;2023-02-20T07:44:29;1.40;;;0.70;;
56629;SDS011;42502;40.732;-74.254;2023-02-20T07:46:30;1.67;;;0.70;;
56629;SDS011;42502;40.732;-74.254;2023-02-20T07:48:33;1.95;;;0.80;;
56629;SDS011;42502;40.732;-74.254;2023-02-20T07:50:34;1.60;;;0.60;;
56629;SDS011;42502;40.732;-74.254;2023-02-20T07:52:35;1.35;;;0.70;;
56629;SDS011;42502;40.732;-74.254;2023-02-20T07:54:38;2.13;;;0.80;;
56629;SDS011;42502;40.732;-74.254;2023-02-20T07:56:39;2.83;;;0.65;;
56629;SDS011;42502;40.732;-74.254;2023-02-20T07:58:41;1.92;;;0.63;;
56629;SDS011;42502;40.732;-74.254;2023-02-20T08:00:42;5.20;;;0.70;;
56629;SDS011;42502;40.732;-74.254;2023-02-20T08:02:43;1.42;;;0.60;;
56629;SDS011;42502;40.732;-74.254;2023-02-20T08:04:44;1.25;;;0.70;;
56629;SDS011;42502;40.732;-74.254;2023-02-20T08:06:44;0.80;;;0.50;;
56629;SDS011;42502;40.732;-74.254;2023-02-20T08:08:51;1.25;;;0.50;;
56629;SDS011;42502;40.732;-74.254;2023-02-20T08:10:52;0.77;;;0.60;;
56629;SDS011;42502;40.732;-74.254;2023-02-20T08:12:53;0.73;;;0.55;;
56629;SDS011;42502;40.732;-74.254;2023-02-20T08:14:54;1.27;;;0.60;;
56629;SDS011;42502;40.732;-74.254;2023-02-20T08:16:55;0.93;;;0.70;;
56629;SDS011;42502;40.732;-74.254;2023-02-20T08:18:56;0.63;;;0.45;;
56629;SDS011;42502;40.732;-74.254;2023-02-20T08:20:57;1.40;;;0.60;;
56629;SDS011;42502;40.732;-74.254;2023-02-20T08:22:58;1.98;;;0.70;;
56629;SDS011;42502;40.732;-74.254;2023-02-20T08:24:59;1.77;;;0.63;;
56629;SDS011;42502;40.732;-74.254;2023-02-20T08:27:00;0.82;;;0.47;;
56629;SDS011;42502;40.732;-74.254;2023-02-20T08:29:01;1.20;;;0.70;;
56629;SDS011;42502;40.732;-74.254;2023-02-20T08:31:05;1.15;;;0.40;;
56629;SDS011;42502;40.732;-74.254;2023-02-20T08:33:06;0.82;;;0.50;;
56629;SDS011;42502;40.732;-74.254;2023-02-20T08:35:09;0.80;;;0.50;;
56629;SDS011;42502;40.732;-74.254;2023-02-20T08:37:10;1.17;;;0.55;;
56629;SDS011;42502;40.732;-74.254;2023-02-20T08:39:11;1.23;;;0.50;;
56629;SDS011;42502;40.732;-74.254;2023-02-20T08:41:12;1.77;;;0.50;;
56629;SDS011;42502;40.732;-74.254;2023-02-20T08:43:13;1.35;;;0.60;;
56629;SDS011;42502;40.732;-74.254;2023-02-20T08:45:14;1.45;;;0.50;;
56629;SDS011;42502;40.732;-74.254;2023-02-20T08:47:17;0.85;;;0.50;;
56629;SDS011;42502;40.732;-74.254;2023-02-20T08:49:19;1.20;;;0.50;;
56629;SDS011;42502;40.732;-74.254;2023-02-20T08:51:20;1.00;;;0.60;;
56629;SDS011;42502;40.732;-74.254;2023-02-20T08:53:21;1.42;;;0.50;;
56629;SDS011;42502;40.732;-74.254;2023-02-20T08:55:31;1.02;;;0.60;;
56629;SDS011;42502;40.732;-74.254;2023-02-20T08:57:32;1.17;;;0.47;;
56629;SDS011;42502;40.732;-74.254;2023-02-20T08:59:32;0.80;;;0.40;;
56629;SDS011;42502;40.732;-74.254;2023-02-20T09:01:34;1.55;;;0.60;;
56629;SDS011;42502;40.732;-74.254;2023-02-20T09:03:35;0.70;;;0.40;;
56629;SDS011;42502;40.732;-74.254;2023-02-20T09:05:37;0.70;;;0.43;;
56629;SDS011;42502;40.732;-74.254;2023-02-20T09:07:38;0.63;;;0.30;;
56629;SDS011;42502;40.732;-74.254;2023-02-20T09:09:39;0.50;;;0.32;;
56629;SDS011;42502;40.732;-74.254;2023-02-20T09:11:40;0.68;;;0.47;;
56629;SDS011;42502;40.732;-74.254;2023-02-20T09:13:42;0.98;;;0.40;;
56629;SDS011;42502;40.732;-74.254;2023-02-20T09:15:44;2.05;;;0.40;;
56629;SDS011;42502;40.732;-74.254;2023-02-20T09:17:48;1.88;;;0.47;;
56629;SDS011;42502;40.732;-74.254;2023-02-20T09:19:50;1.55;;;0.57;;
56629;SDS011;42502;40.732;-74.254;2023-02-20T09:21:51;0.40;;;0.30;;
56629;SDS011;42502;40.732;-74.254;2023-02-20T09:23:57;0.70;;;0.32;;
56629;SDS011;42502;40.732;-74.254;2023-02-20T09:25:58;0.50;;;0.40;;
56629;SDS011;42502;40.732;-74.254;2023-02-20T09:27:59;0.85;;;0.40;;
56629;SDS011;42502;40.732;-74.254;2023-02-20T09:30:00;0.98;;;0.40;;
56629;SDS011;42502;40.732;-74.254;2023-02-20T09:32:01;1.30;;;0.40;;
56629;SDS011;42502;40.732;-74.254;2023-02-20T09:34:02;1.08;;;0.40;;
56629;SDS011;42502;40.732;-74.254;2023-02-20T09:36:03;1.52;;;0.38;;
56629;SDS011;42502;40.732;-74.254;2023-02-20T09:38:04;0.95;;;0.40;;
56629;SDS011;42502;40.732;-74.254;2023-02-20T09:40:06;0.95;;;0.40;;
56629;SDS011;42502;40.732;-74.254;2023-02-20T09:46:44;0.60;;;0.32;;
56629;SDS011;42502;40.732;-74.254;2023-02-20T09:49:02;2.05;;;0.40;;
56629;SDS011;42502;40.732;-74.254;2023-02-20T09:51:15;0.83;;;0.40;;
56629;SDS011;42502;40.732;-74.254;2023-02-20T09:53:31;1.58;;;0.40;;
56629;SDS011;42502;40.732;-74.254;2023-02-20T09:55:49;0.50;;;0.40;;
56629;SDS011;42502;40.732;-74.254;2023-02-20T09:57:51;0.68;;;0.40;;
56629;SDS011;42502;40.732;-74.254;2023-02-20T10:00:19;0.40;;;0.30;;
56629;SDS011;42502;40.732;-74.254;2023-02-20T10:02:22;0.30;;;0.30;;
56629;SDS011;42502;40.732;-74.254;2023-02-20T10:04:33;1.77;;;0.40;;
56629;SDS011;42502;40.732;-74.254;2023-02-20T10:06:42;0.60;;;0.45;;
56629;SDS011;42502;40.732;-74.254;2023-02-20T10:08:49;0.73;;;0.40;;
56629;SDS011;42502;40.732;-74.254;2023-02-20T10:10:51;0.82;;;0.40;;
56629;SDS011;42502;40.732;-74.254;2023-02-20T10:15:33;2.33;;;0.57;;
56629;SDS011;42502;40.732;-74.254;2023-02-20T10:29:44;0.75;;;0.30;;
56629;SDS011;42502;40.732;-74.254;2023-02-20T10:31:51;0.60;;;0.40;;
56629;SDS011;42502;40.732;-74.254;2023-02-20T10:34:00;2.28;;;0.40;;
56629;SDS011;42502;40.732;-74.254;2023-02-20T10:38:11;0.75;;;0.40;;
56629;SDS011;42502;40.732;-74.254;2023-02-20T10:42:57;0.98;;;0.40;;
56629;SDS011;42502;40.732;-74.254;2023-02-20T10:46:13;0.70;;;0.40;;
56629;SDS011;42502;40.732;-74.254;2023-02-20T10:48:08;0.63;;;0.40;;
56629;SDS011;42502;40.732;-74.254;2023-02-20T10:52:51;0.43;;;0.32;;
56629;SDS011;42502;40.732;-74.254;2023-02-20T10:55:20;0.40;;;0.30;;
56629;SDS011;42502;40.732;-74.254;2023-02-20T10:57:36;0.40;;;0.32;;
56629;SDS011;42502;40.732;-74.254;2023-02-20T10:59:52;0.32;;;0.30;;
56629;SDS011;42502;40.732;-74.254;2023-02-20T11:01:59;1.35;;;0.30;;
56629;SDS011;42502;40.732;-74.254;2023-02-20T11:06:18;0.63;;;0.40;;
56629;SDS011;42502;40.732;-74.254;2023-02-20T11:08:21;0.40;;;0.40;;
56629;SDS011;42502;40.732;-74.254;2023-02-20T11:10:25;2.85;;;0.40;;
56629;SDS011;42502;40.732;-74.254;2023-02-20T11:18:43;1.42;;;0.40;;
56629;SDS011;42502;40.732;-74.254;2023-02-20T11:20:45;3.45;;;0.40;;
56629;SDS011;42502;40.732;-74.254;2023-02-20T11:22:47;0.95;;;0.40;;
56629;SDS011;42502;40.732;-74.254;2023-02-20T11:24:48;1.95;;;0.50;;
56629;SDS011;42502;40.732;-74.254;2023-02-20T11:26:49;0.68;;;0.43;;
56629;SDS011;42502;40.732;-74.254;2023-02-20T11:29:02;0.70;;;0.40;;
56629;SDS011;42502;40.732;-74.254;2023-02-20T11:31:10;0.55;;;0.40;;
56629;SDS011;42502;40.732;-74.254;2023-02-20T11:35:38;0.43;;;0.35;;
56629;SDS011;42502;40.732;-74.254;2023-02-20T11:37:42;3.72;;;0.40;;
56629;SDS011;42502;40.732;-74.254;2023-02-20T11:39:46;1.92;;;0.35;;
56629;SDS011;42502;40.732;-74.254;2023-02-20T11:41:49;2.53;;;0.40;;
56629;SDS011;42502;40.732;-74.254;2023-02-20T11:46:21;3.28;;;0.40;;
56629;SDS011;42502;40.732;-74.254;2023-02-20T11:48:23;1.38;;;0.40;;
56629;SDS011;42502;40.732;-74.254;2023-02-20T11:50:25;0.73;;;0.45;;
56629;SDS011;42502;40.732;-74.254;2023-02-20T11:53:02;2.28;;;0.40;;
56629;SDS011;42502;40.732;-74.254;2023-02-20T11:55:08;1.73;;;0.30;;
56629;SDS011;42502;40.732;-74.254;2023-02-20T11:57:29;2.83;;;0.47;;
56629;SDS011;42502;40.732;-74.254;2023-02-20T12:01:36;3.58;;;0.50;;
56629;SDS011;42502;40.732;-74.254;2023-02-20T12:03:37;1.50;;;0.35;;
56629;SDS011;42502;40.732;-74.254;2023-02-20T12:07:56;0.50;;;0.30;;
56629;SDS011;42502;40.732;-74.254;2023-02-20T12:10:00;4.43;;;0.50;;
56629;SDS011;42502;40.732;-74.254;2023-02-20T12:12:16;1.70;;;0.40;;
56629;SDS011;42502;40.732;-74.254;2023-02-20T12:14:22;3.08;;;0.38;;
56629;SDS011;42502;40.732;-74.254;2023-02-20T12:18:48;2.25;;;0.40;;
56629;SDS011;42502;40.732;-74.254;2023-02-20T12:25:36;1.30;;;0.50;;
56629;SDS011;42502;40.732;-74.254;2023-02-20T12:32:18;0.70;;;0.40;;
56629;SDS011;42502;40.732;-74.254;2023-02-20T12:34:38;1.17;;;0.30;;
56629;SDS011;42502;40.732;-74.254;2023-02-20T12:39:13;3.60;;;0.43;;
56629;SDS011;42502;40.732;-74.254;2023-02-20T12:41:35;0.50;;;0.40;;
56629;SDS011;42502;40.732;-74.254;2023-02-20T12:50:33;2.08;;;0.43;;
56629;SDS011;42502;40.732;-74.254;2023-02-20T12:55:08;0.45;;;0.30;;
56629;SDS011;42502;40.732;-74.254;2023-02-20T13:01:41;0.88;;;0.40;;
56629;SDS011;42502;40.732;-74.254;2023-02-20T13:05:48;4.05;;;0.52;;
56629;SDS011;42502;40.732;-74.254;2023-02-20T13:07:51;1.63;;;0.40;;
56629;SDS011;42502;40.732;-74.254;2023-02-20T13:12:16;1.98;;;0.40;;
56629;SDS011;42502;40.732;-74.254;2023-02-20T13:14:23;1.00;;;0.45;;
56629;SDS011;42502;40.732;-74.254;2023-02-20T13:18:39;2.50;;;0.50;;
56629;SDS011;42502;40.732;-74.254;2023-02-20T13:20:51;1.60;;;0.60;;
56629;SDS011;42502;40.732;-74.254;2023-02-20T13:23:05;2.28;;;0.35;;
56629;SDS011;42502;40.732;-74.254;2023-02-20T13:27:31;1.00;;;0.40;;
56629;SDS011;42502;40.732;-74.254;2023-02-20T13:29:33;0.40;;;0.40;;
56629;SDS011;42502;40.732;-74.254;2023-02-20T13:33:38;0.93;;;0.40;;
56629;SDS011;42502;40.732;-74.254;2023-02-20T13:39:49;4.45;;;0.65;;
56629;SDS011;42502;40.732;-74.254;2023-02-20T13:43:54;1.98;;;0.40;;
56629;SDS011;42502;40.732;-74.254;2023-02-20T13:46:27;3.83;;;0.40;;
56629;SDS011;42502;40.732;-74.254;2023-02-20T13:50:31;3.17;;;0.47;;
56629;SDS011;42502;40.732;-74.254;2023-02-20T13:54:41;3.03;;;0.50;;
56629;SDS011;42502;40.732;-74.254;2023-02-20T13:56:50;1.83;;;0.47;;
56629;SDS011;42502;40.732;-74.254;2023-02-20T13:58:56;2.30;;;0.50;;
56629;SDS011;42502;40.732;-74.254;2023-02-20T14:00:58;2.92;;;0.40;;
56629;SDS011;42502;40.732;-74.254;2023-02-20T14:03:00;5.20;;;0.60;;
56629;SDS011;42502;40.732;-74.254;2023-02-20T14:05:18;2.60;;;0.50;;
56629;SDS011;42502;40.732;-74.254;2023-02-20T14:07:29;5.43;;;0.50;;
56629;SDS011;42502;40.732;-74.254;2023-02-20T14:09:39;4.07;;;0.60;;
56629;SDS011;42502;40.732;-74.254;2023-02-20T14:11:42;5.55;;;0.68;;